Port Acres, Texas
Current Conditions -  °F | °C
As of 6:53 AM on Thursday 23 Oct 2014 (Local Time) from KBPT Reporting Station
Clear Clear  
Wind Chill: 58°   Ceiling: Unl
Heat Index: 58°   Visibility: 10mi
Dew Point: 51°   Wind: 6mph
Humidity: 78%   Direction: 30°NNE
Pressure: 30.08"   Gusts: NA
Location:  29.7569°N, 94.1898°W
Report Text: KBPT 231153Z 03005KT 10SM CLR 14/11 A3008 RMK AO2 SLP186 T01440106 10183 20144 53004
Loading
Personal Weather Stations






























Interactive Weather Map New forecast layout! Learn more

10-Day Weather Forecast

Advertisements
Track Severe Weather on mobile